sensor_id;sensor_type;location;lat;lon;timestamp;P1;durP1;ratioP1;P2;durP2;ratioP2
18090;SDS011;9172;49.948;9.208;2024-03-29T00:01:37;2.73;;;0.80;;
18090;SDS011;9172;49.948;9.208;2024-03-29T00:04:06;2.37;;;1.00;;
18090;SDS011;9172;49.948;9.208;2024-03-29T00:06:34;1.90;;;0.93;;
18090;SDS011;9172;49.948;9.208;2024-03-29T00:09:03;1.53;;;0.90;;
18090;SDS011;9172;49.948;9.208;2024-03-29T00:11:31;3.90;;;1.10;;
18090;SDS011;9172;49.948;9.208;2024-03-29T00:14:00;0.60;;;0.60;;
18090;SDS011;9172;49.948;9.208;2024-03-29T00:16:28;2.17;;;0.70;;
18090;SDS011;9172;49.948;9.208;2024-03-29T00:18:57;2.50;;;0.80;;
18090;SDS011;9172;49.948;9.208;2024-03-29T00:21:26;1.43;;;0.60;;
18090;SDS011;9172;49.948;9.208;2024-03-29T00:23:54;1.70;;;0.70;;
18090;SDS011;9172;49.948;9.208;2024-03-29T00:26:23;1.80;;;0.80;;
18090;SDS011;9172;49.948;9.208;2024-03-29T00:28:51;1.37;;;0.60;;
18090;SDS011;9172;49.948;9.208;2024-03-29T00:31:21;0.60;;;0.60;;
18090;SDS011;9172;49.948;9.208;2024-03-29T00:33:50;3.83;;;0.70;;
18090;SDS011;9172;49.948;9.208;2024-03-29T00:36:18;2.00;;;0.80;;
18090;SDS011;9172;49.948;9.208;2024-03-29T00:38:47;1.47;;;0.90;;
18090;SDS011;9172;49.948;9.208;2024-03-29T00:41:15;5.33;;;0.87;;
18090;SDS011;9172;49.948;9.208;2024-03-29T00:43:44;1.43;;;1.17;;
18090;SDS011;9172;49.948;9.208;2024-03-29T00:46:12;2.97;;;0.60;;
18090;SDS011;9172;49.948;9.208;2024-03-29T00:48:41;3.13;;;0.80;;
18090;SDS011;9172;49.948;9.208;2024-03-29T00:51:11;2.47;;;0.70;;
18090;SDS011;9172;49.948;9.208;2024-03-29T00:53:39;3.93;;;0.70;;
18090;SDS011;9172;49.948;9.208;2024-03-29T00:56:08;2.43;;;0.90;;
18090;SDS011;9172;49.948;9.208;2024-03-29T00:58:37;1.63;;;0.80;;
18090;SDS011;9172;49.948;9.208;2024-03-29T01:01:05;1.00;;;0.90;;
18090;SDS011;9172;49.948;9.208;2024-03-29T01:03:34;0.93;;;0.70;;
18090;SDS011;9172;49.948;9.208;2024-03-29T01:06:02;1.13;;;0.73;;
18090;SDS011;9172;49.948;9.208;2024-03-29T01:08:31;3.07;;;0.80;;
18090;SDS011;9172;49.948;9.208;2024-03-29T01:11:00;0.87;;;0.63;;
18090;SDS011;9172;49.948;9.208;2024-03-29T01:13:28;0.87;;;0.70;;
18090;SDS011;9172;49.948;9.208;2024-03-29T01:15:57;1.10;;;0.83;;
18090;SDS011;9172;49.948;9.208;2024-03-29T01:18:26;1.00;;;0.80;;
18090;SDS011;9172;49.948;9.208;2024-03-29T01:20:54;3.80;;;0.77;;
18090;SDS011;9172;49.948;9.208;2024-03-29T01:23:23;2.50;;;0.93;;
18090;SDS011;9172;49.948;9.208;2024-03-29T01:25:51;1.37;;;0.70;;
18090;SDS011;9172;49.948;9.208;2024-03-29T01:28:20;1.43;;;0.80;;
18090;SDS011;9172;49.948;9.208;2024-03-29T01:30:52;1.63;;;0.90;;
18090;SDS011;9172;49.948;9.208;2024-03-29T01:33:21;1.63;;;0.83;;
18090;SDS011;9172;49.948;9.208;2024-03-29T01:35:50;2.37;;;0.77;;
18090;SDS011;9172;49.948;9.208;2024-03-29T01:38:18;1.30;;;0.70;;
18090;SDS011;9172;49.948;9.208;2024-03-29T01:40:49;0.70;;;0.70;;
18090;SDS011;9172;49.948;9.208;2024-03-29T01:43:18;3.10;;;1.03;;
18090;SDS011;9172;49.948;9.208;2024-03-29T01:45:47;4.80;;;0.97;;
18090;SDS011;9172;49.948;9.208;2024-03-29T01:48:17;1.73;;;0.80;;
18090;SDS011;9172;49.948;9.208;2024-03-29T01:50:48;0.77;;;0.67;;
18090;SDS011;9172;49.948;9.208;2024-03-29T01:53:18;1.10;;;0.70;;
18090;SDS011;9172;49.948;9.208;2024-03-29T01:55:48;0.87;;;0.67;;
18090;SDS011;9172;49.948;9.208;2024-03-29T01:58:16;0.87;;;0.70;;
18090;SDS011;9172;49.948;9.208;2024-03-29T02:00:50;0.87;;;0.63;;
18090;SDS011;9172;49.948;9.208;2024-03-29T02:03:27;1.77;;;0.97;;
18090;SDS011;9172;49.948;9.208;2024-03-29T02:05:56;1.17;;;0.70;;
18090;SDS011;9172;49.948;9.208;2024-03-29T02:08:25;0.83;;;0.70;;
18090;SDS011;9172;49.948;9.208;2024-03-29T02:10:55;1.83;;;0.73;;
18090;SDS011;9172;49.948;9.208;2024-03-29T02:13:24;0.90;;;0.50;;
18090;SDS011;9172;49.948;9.208;2024-03-29T02:15:53;2.30;;;0.70;;
18090;SDS011;9172;49.948;9.208;2024-03-29T02:18:22;1.13;;;0.93;;
18090;SDS011;9172;49.948;9.208;2024-03-29T02:20:50;3.27;;;0.80;;
18090;SDS011;9172;49.948;9.208;2024-03-29T02:23:20;1.60;;;0.70;;
18090;SDS011;9172;49.948;9.208;2024-03-29T02:25:58;1.50;;;0.87;;
18090;SDS011;9172;49.948;9.208;2024-03-29T02:28:27;3.70;;;0.70;;
18090;SDS011;9172;49.948;9.208;2024-03-29T02:30:55;0.70;;;0.70;;
18090;SDS011;9172;49.948;9.208;2024-03-29T02:33:24;1.27;;;0.80;;
18090;SDS011;9172;49.948;9.208;2024-03-29T02:35:53;2.00;;;1.00;;
18090;SDS011;9172;49.948;9.208;2024-03-29T02:38:21;2.27;;;0.70;;
18090;SDS011;9172;49.948;9.208;2024-03-29T02:40:50;1.53;;;0.97;;
18090;SDS011;9172;49.948;9.208;2024-03-29T02:43:18;1.90;;;0.70;;
18090;SDS011;9172;49.948;9.208;2024-03-29T02:45:47;1.20;;;0.80;;
18090;SDS011;9172;49.948;9.208;2024-03-29T02:48:16;5.77;;;0.83;;
18090;SDS011;9172;49.948;9.208;2024-03-29T02:50:44;3.60;;;0.90;;
18090;SDS011;9172;49.948;9.208;2024-03-29T02:53:13;2.17;;;0.93;;
18090;SDS011;9172;49.948;9.208;2024-03-29T02:55:41;1.00;;;0.73;;
18090;SDS011;9172;49.948;9.208;2024-03-29T02:58:10;0.63;;;0.63;;
18090;SDS011;9172;49.948;9.208;2024-03-29T03:00:39;1.43;;;1.13;;
18090;SDS011;9172;49.948;9.208;2024-03-29T03:03:07;2.33;;;0.77;;
18090;SDS011;9172;49.948;9.208;2024-03-29T03:05:36;0.80;;;0.80;;
18090;SDS011;9172;49.948;9.208;2024-03-29T03:08:05;0.60;;;0.60;;
18090;SDS011;9172;49.948;9.208;2024-03-29T03:10:52;1.13;;;0.80;;
18090;SDS011;9172;49.948;9.208;2024-03-29T03:13:26;2.27;;;0.73;;
18090;SDS011;9172;49.948;9.208;2024-03-29T03:15:55;2.30;;;0.80;;
18090;SDS011;9172;49.948;9.208;2024-03-29T03:18:24;2.57;;;0.70;;
18090;SDS011;9172;49.948;9.208;2024-03-29T03:20:53;0.93;;;0.60;;
18090;SDS011;9172;49.948;9.208;2024-03-29T03:23:24;2.50;;;0.90;;
18090;SDS011;9172;49.948;9.208;2024-03-29T03:25:54;0.87;;;0.83;;
18090;SDS011;9172;49.948;9.208;2024-03-29T03:28:23;1.13;;;0.80;;
18090;SDS011;9172;49.948;9.208;2024-03-29T03:30:52;1.37;;;0.60;;
18090;SDS011;9172;49.948;9.208;2024-03-29T03:33:21;1.77;;;0.70;;
18090;SDS011;9172;49.948;9.208;2024-03-29T03:35:50;0.77;;;0.77;;
18090;SDS011;9172;49.948;9.208;2024-03-29T03:38:18;3.83;;;0.90;;
18090;SDS011;9172;49.948;9.208;2024-03-29T03:40:47;2.03;;;0.80;;
18090;SDS011;9172;49.948;9.208;2024-03-29T03:43:16;4.33;;;0.93;;
18090;SDS011;9172;49.948;9.208;2024-03-29T03:45:44;2.83;;;1.00;;
18090;SDS011;9172;49.948;9.208;2024-03-29T03:48:14;1.83;;;0.83;;
18090;SDS011;9172;49.948;9.208;2024-03-29T03:50:42;2.83;;;0.70;;
18090;SDS011;9172;49.948;9.208;2024-03-29T03:53:11;2.60;;;0.77;;
18090;SDS011;9172;49.948;9.208;2024-03-29T03:55:40;1.00;;;0.90;;
18090;SDS011;9172;49.948;9.208;2024-03-29T03:58:08;1.20;;;0.80;;
18090;SDS011;9172;49.948;9.208;2024-03-29T04:00:37;0.80;;;0.80;;
18090;SDS011;9172;49.948;9.208;2024-03-29T04:03:06;3.23;;;0.80;;
18090;SDS011;9172;49.948;9.208;2024-03-29T04:05:36;2.43;;;1.07;;
18090;SDS011;9172;49.948;9.208;2024-03-29T04:08:05;1.47;;;0.93;;
18090;SDS011;9172;49.948;9.208;2024-03-29T04:10:37;0.77;;;0.70;;
18090;SDS011;9172;49.948;9.208;2024-03-29T04:13:07;0.73;;;0.70;;
18090;SDS011;9172;49.948;9.208;2024-03-29T04:15:36;0.60;;;0.60;;
18090;SDS011;9172;49.948;9.208;2024-03-29T04:18:04;0.83;;;0.70;;
18090;SDS011;9172;49.948;9.208;2024-03-29T04:20:34;2.03;;;0.70;;
18090;SDS011;9172;49.948;9.208;2024-03-29T04:23:04;1.37;;;0.90;;
18090;SDS011;9172;49.948;9.208;2024-03-29T04:25:32;4.00;;;1.13;;
18090;SDS011;9172;49.948;9.208;2024-03-29T04:28:01;1.07;;;0.70;;
18090;SDS011;9172;49.948;9.208;2024-03-29T04:30:30;0.83;;;0.70;;
18090;SDS011;9172;49.948;9.208;2024-03-29T04:32:58;3.83;;;0.70;;
18090;SDS011;9172;49.948;9.208;2024-03-29T04:35:27;1.27;;;0.70;;
18090;SDS011;9172;49.948;9.208;2024-03-29T04:37:55;0.67;;;0.60;;
18090;SDS011;9172;49.948;9.208;2024-03-29T04:40:24;0.60;;;0.60;;
18090;SDS011;9172;49.948;9.208;2024-03-29T04:43:02;2.30;;;1.23;;
18090;SDS011;9172;49.948;9.208;2024-03-29T04:45:30;0.73;;;0.60;;
18090;SDS011;9172;49.948;9.208;2024-03-29T04:47:59;1.20;;;0.80;;
18090;SDS011;9172;49.948;9.208;2024-03-29T04:50:28;0.73;;;0.50;;
18090;SDS011;9172;49.948;9.208;2024-03-29T04:52:56;2.57;;;0.60;;
18090;SDS011;9172;49.948;9.208;2024-03-29T04:55:25;2.10;;;0.50;;
18090;SDS011;9172;49.948;9.208;2024-03-29T04:57:53;1.03;;;0.70;;
18090;SDS011;9172;49.948;9.208;2024-03-29T05:00:22;0.83;;;0.50;;
18090;SDS011;9172;49.948;9.208;2024-03-29T05:02:51;1.80;;;0.50;;
18090;SDS011;9172;49.948;9.208;2024-03-29T05:05:19;0.70;;;0.50;;
18090;SDS011;9172;49.948;9.208;2024-03-29T05:07:48;1.03;;;0.50;;
18090;SDS011;9172;49.948;9.208;2024-03-29T05:10:17;1.30;;;0.60;;
18090;SDS011;9172;49.948;9.208;2024-03-29T05:12:47;1.07;;;0.80;;
18090;SDS011;9172;49.948;9.208;2024-03-29T05:15:17;2.00;;;0.70;;
18090;SDS011;9172;49.948;9.208;2024-03-29T05:17:45;0.47;;;0.47;;
18090;SDS011;9172;49.948;9.208;2024-03-29T05:20:14;1.93;;;0.80;;
18090;SDS011;9172;49.948;9.208;2024-03-29T05:22:43;4.23;;;1.60;;
18090;SDS011;9172;49.948;9.208;2024-03-29T05:25:11;1.03;;;0.60;;
18090;SDS011;9172;49.948;9.208;2024-03-29T05:27:40;1.20;;;0.87;;
18090;SDS011;9172;49.948;9.208;2024-03-29T05:30:09;1.30;;;0.57;;
18090;SDS011;9172;49.948;9.208;2024-03-29T05:32:39;0.73;;;0.60;;
18090;SDS011;9172;49.948;9.208;2024-03-29T05:35:08;1.03;;;0.70;;
18090;SDS011;9172;49.948;9.208;2024-03-29T05:37:37;1.37;;;0.80;;
18090;SDS011;9172;49.948;9.208;2024-03-29T05:40:07;1.60;;;0.70;;
18090;SDS011;9172;49.948;9.208;2024-03-29T05:42:37;0.53;;;0.50;;
18090;SDS011;9172;49.948;9.208;2024-03-29T05:45:06;0.97;;;0.60;;
18090;SDS011;9172;49.948;9.208;2024-03-29T05:47:45;1.17;;;0.80;;
18090;SDS011;9172;49.948;9.208;2024-03-29T05:50:13;0.93;;;0.77;;
18090;SDS011;9172;49.948;9.208;2024-03-29T05:52:42;1.27;;;0.70;;
18090;SDS011;9172;49.948;9.208;2024-03-29T05:55:10;0.60;;;0.57;;
18090;SDS011;9172;49.948;9.208;2024-03-29T05:57:39;3.83;;;0.80;;
18090;SDS011;9172;49.948;9.208;2024-03-29T06:00:11;4.93;;;0.73;;
18090;SDS011;9172;49.948;9.208;2024-03-29T06:02:49;1.00;;;0.90;;
18090;SDS011;9172;49.948;9.208;2024-03-29T06:05:17;0.70;;;0.53;;
18090;SDS011;9172;49.948;9.208;2024-03-29T06:07:46;1.47;;;0.67;;
18090;SDS011;9172;49.948;9.208;2024-03-29T06:10:15;0.50;;;0.50;;
18090;SDS011;9172;49.948;9.208;2024-03-29T06:12:43;0.60;;;0.60;;
18090;SDS011;9172;49.948;9.208;2024-03-29T06:15:12;2.20;;;0.60;;
18090;SDS011;9172;49.948;9.208;2024-03-29T06:17:59;0.90;;;0.57;;
18090;SDS011;9172;49.948;9.208;2024-03-29T06:20:27;2.57;;;0.70;;
18090;SDS011;9172;49.948;9.208;2024-03-29T06:22:56;0.67;;;0.50;;
18090;SDS011;9172;49.948;9.208;2024-03-29T06:25:25;0.57;;;0.57;;
18090;SDS011;9172;49.948;9.208;2024-03-29T06:27:53;0.83;;;0.70;;
18090;SDS011;9172;49.948;9.208;2024-03-29T06:30:22;1.13;;;0.83;;
18090;SDS011;9172;49.948;9.208;2024-03-29T06:32:50;0.40;;;0.40;;
18090;SDS011;9172;49.948;9.208;2024-03-29T06:35:19;1.90;;;0.80;;
18090;SDS011;9172;49.948;9.208;2024-03-29T06:37:48;1.93;;;0.70;;
18090;SDS011;9172;49.948;9.208;2024-03-29T06:40:17;0.90;;;0.80;;
18090;SDS011;9172;49.948;9.208;2024-03-29T06:42:45;0.60;;;0.60;;
18090;SDS011;9172;49.948;9.208;2024-03-29T06:45:14;0.87;;;0.77;;
18090;SDS011;9172;49.948;9.208;2024-03-29T06:47:43;1.03;;;0.83;;
18090;SDS011;9172;49.948;9.208;2024-03-29T06:50:11;2.10;;;0.63;;
18090;SDS011;9172;49.948;9.208;2024-03-29T06:52:40;3.73;;;0.60;;
18090;SDS011;9172;49.948;9.208;2024-03-29T06:55:09;1.07;;;0.67;;
18090;SDS011;9172;49.948;9.208;2024-03-29T07:00:14;0.90;;;0.80;;
18090;SDS011;9172;49.948;9.208;2024-03-29T07:02:44;1.17;;;0.80;;
18090;SDS011;9172;49.948;9.208;2024-03-29T07:05:12;3.33;;;0.60;;
18090;SDS011;9172;49.948;9.208;2024-03-29T07:07:41;0.40;;;0.40;;
18090;SDS011;9172;49.948;9.208;2024-03-29T07:10:12;0.90;;;0.70;;
18090;SDS011;9172;49.948;9.208;2024-03-29T07:12:40;0.70;;;0.70;;
18090;SDS011;9172;49.948;9.208;2024-03-29T07:15:09;1.63;;;1.03;;
18090;SDS011;9172;49.948;9.208;2024-03-29T07:17:38;1.90;;;0.67;;
18090;SDS011;9172;49.948;9.208;2024-03-29T07:20:09;1.87;;;0.50;;
18090;SDS011;9172;49.948;9.208;2024-03-29T07:22:38;1.00;;;0.70;;
18090;SDS011;9172;49.948;9.208;2024-03-29T07:25:07;3.30;;;1.00;;
18090;SDS011;9172;49.948;9.208;2024-03-29T07:27:36;1.90;;;0.60;;
18090;SDS011;9172;49.948;9.208;2024-03-29T07:30:05;1.67;;;0.60;;
18090;SDS011;9172;49.948;9.208;2024-03-29T07:32:36;0.60;;;0.60;;
18090;SDS011;9172;49.948;9.208;2024-03-29T07:35:06;1.27;;;0.67;;
18090;SDS011;9172;49.948;9.208;2024-03-29T07:37:35;1.47;;;0.60;;
18090;SDS011;9172;49.948;9.208;2024-03-29T07:40:06;1.13;;;0.53;;
18090;SDS011;9172;49.948;9.208;2024-03-29T07:42:35;0.60;;;0.60;;
18090;SDS011;9172;49.948;9.208;2024-03-29T07:45:05;0.93;;;0.60;;
18090;SDS011;9172;49.948;9.208;2024-03-29T07:47:34;0.37;;;0.37;;
18090;SDS011;9172;49.948;9.208;2024-03-29T07:50:03;3.13;;;0.77;;
18090;SDS011;9172;49.948;9.208;2024-03-29T07:52:33;0.60;;;0.60;;
18090;SDS011;9172;49.948;9.208;2024-03-29T07:55:02;0.60;;;0.60;;
18090;SDS011;9172;49.948;9.208;2024-03-29T07:57:31;1.10;;;0.83;;
18090;SDS011;9172;49.948;9.208;2024-03-29T08:00:00;1.13;;;0.90;;
18090;SDS011;9172;49.948;9.208;2024-03-29T08:02:29;1.30;;;0.83;;
18090;SDS011;9172;49.948;9.208;2024-03-29T08:04:59;2.60;;;1.23;;
18090;SDS011;9172;49.948;9.208;2024-03-29T08:07:36;4.13;;;1.20;;
18090;SDS011;9172;49.948;9.208;2024-03-29T08:10:06;2.93;;;1.47;;
18090;SDS011;9172;49.948;9.208;2024-03-29T08:12:36;1.00;;;0.73;;
18090;SDS011;9172;49.948;9.208;2024-03-29T08:15:06;1.10;;;0.90;;
18090;SDS011;9172;49.948;9.208;2024-03-29T08:17:35;0.87;;;0.80;;
18090;SDS011;9172;49.948;9.208;2024-03-29T08:20:05;0.80;;;0.80;;
18090;SDS011;9172;49.948;9.208;2024-03-29T08:22:34;0.90;;;0.80;;
18090;SDS011;9172;49.948;9.208;2024-03-29T08:25:03;1.20;;;0.80;;
18090;SDS011;9172;49.948;9.208;2024-03-29T08:27:32;0.70;;;0.60;;
18090;SDS011;9172;49.948;9.208;2024-03-29T08:30:01;0.83;;;0.80;;
18090;SDS011;9172;49.948;9.208;2024-03-29T08:32:31;1.90;;;1.13;;
18090;SDS011;9172;49.948;9.208;2024-03-29T08:34:59;1.97;;;1.00;;
18090;SDS011;9172;49.948;9.208;2024-03-29T08:37:28;1.90;;;1.30;;
18090;SDS011;9172;49.948;9.208;2024-03-29T08:39:57;1.23;;;0.90;;
18090;SDS011;9172;49.948;9.208;2024-03-29T08:42:25;0.70;;;0.50;;
18090;SDS011;9172;49.948;9.208;2024-03-29T08:45:03;1.40;;;0.80;;
18090;SDS011;9172;49.948;9.208;2024-03-29T08:47:34;3.27;;;0.80;;
18090;SDS011;9172;49.948;9.208;2024-03-29T08:50:03;0.70;;;0.63;;
18090;SDS011;9172;49.948;9.208;2024-03-29T08:52:32;1.13;;;0.60;;
18090;SDS011;9172;49.948;9.208;2024-03-29T08:55:01;1.03;;;0.50;;
18090;SDS011;9172;49.948;9.208;2024-03-29T08:57:29;1.00;;;0.80;;
18090;SDS011;9172;49.948;9.208;2024-03-29T08:59:58;1.03;;;0.73;;
18090;SDS011;9172;49.948;9.208;2024-03-29T09:02:27;1.43;;;1.03;;
18090;SDS011;9172;49.948;9.208;2024-03-29T09:04:56;2.30;;;0.63;;
18090;SDS011;9172;49.948;9.208;2024-03-29T09:07:25;2.40;;;0.90;;
18090;SDS011;9172;49.948;9.208;2024-03-29T09:09:54;2.23;;;0.77;;
18090;SDS011;9172;49.948;9.208;2024-03-29T09:12:23;1.97;;;0.73;;
18090;SDS011;9172;49.948;9.208;2024-03-29T09:14:52;2.53;;;1.33;;
18090;SDS011;9172;49.948;9.208;2024-03-29T09:17:20;1.10;;;0.60;;
18090;SDS011;9172;49.948;9.208;2024-03-29T09:19:50;1.10;;;0.70;;
18090;SDS011;9172;49.948;9.208;2024-03-29T09:22:19;1.00;;;0.70;;
18090;SDS011;9172;49.948;9.208;2024-03-29T09:24:48;1.23;;;0.77;;
18090;SDS011;9172;49.948;9.208;2024-03-29T09:27:16;1.43;;;0.87;;
18090;SDS011;9172;49.948;9.208;2024-03-29T09:29:47;2.73;;;0.77;;
18090;SDS011;9172;49.948;9.208;2024-03-29T09:32:16;1.30;;;0.80;;
18090;SDS011;9172;49.948;9.208;2024-03-29T09:34:46;5.13;;;0.93;;
18090;SDS011;9172;49.948;9.208;2024-03-29T09:37:23;1.87;;;1.00;;
18090;SDS011;9172;49.948;9.208;2024-03-29T09:39:52;1.40;;;0.90;;
18090;SDS011;9172;49.948;9.208;2024-03-29T09:42:21;1.20;;;0.80;;
18090;SDS011;9172;49.948;9.208;2024-03-29T09:44:52;1.23;;;0.90;;
18090;SDS011;9172;49.948;9.208;2024-03-29T09:47:23;2.10;;;1.17;;
18090;SDS011;9172;49.948;9.208;2024-03-29T09:49:52;1.63;;;1.17;;
18090;SDS011;9172;49.948;9.208;2024-03-29T09:52:22;1.20;;;0.80;;
18090;SDS011;9172;49.948;9.208;2024-03-29T09:54:52;1.93;;;1.50;;
18090;SDS011;9172;49.948;9.208;2024-03-29T09:57:22;1.80;;;1.10;;
18090;SDS011;9172;49.948;9.208;2024-03-29T09:59:52;1.20;;;0.90;;
18090;SDS011;9172;49.948;9.208;2024-03-29T10:02:21;2.20;;;1.00;;
18090;SDS011;9172;49.948;9.208;2024-03-29T10:04:53;2.20;;;1.17;;
18090;SDS011;9172;49.948;9.208;2024-03-29T10:07:24;1.47;;;0.93;;
18090;SDS011;9172;49.948;9.208;2024-03-29T10:09:53;1.77;;;0.90;;
18090;SDS011;9172;49.948;9.208;2024-03-29T10:12:24;1.13;;;0.97;;
18090;SDS011;9172;49.948;9.208;2024-03-29T10:14:54;2.43;;;1.03;;
18090;SDS011;9172;49.948;9.208;2024-03-29T10:17:26;2.43;;;1.50;;
18090;SDS011;9172;49.948;9.208;2024-03-29T10:19:54;4.37;;;1.00;;
18090;SDS011;9172;49.948;9.208;2024-03-29T10:22:24;2.10;;;1.20;;
18090;SDS011;9172;49.948;9.208;2024-03-29T10:24:53;1.87;;;1.10;;
18090;SDS011;9172;49.948;9.208;2024-03-29T10:27:24;3.33;;;1.80;;
18090;SDS011;9172;49.948;9.208;2024-03-29T10:29:53;4.87;;;1.00;;
18090;SDS011;9172;49.948;9.208;2024-03-29T10:32:22;3.70;;;1.60;;
18090;SDS011;9172;49.948;9.208;2024-03-29T10:34:51;2.77;;;1.37;;
18090;SDS011;9172;49.948;9.208;2024-03-29T10:37:20;3.33;;;1.03;;
18090;SDS011;9172;49.948;9.208;2024-03-29T10:39:52;2.30;;;1.20;;
18090;SDS011;9172;49.948;9.208;2024-03-29T10:42:20;3.10;;;1.57;;
18090;SDS011;9172;49.948;9.208;2024-03-29T10:44:51;6.73;;;2.30;;
18090;SDS011;9172;49.948;9.208;2024-03-29T10:47:22;2.07;;;1.40;;
18090;SDS011;9172;49.948;9.208;2024-03-29T10:49:51;3.10;;;1.60;;
18090;SDS011;9172;49.948;9.208;2024-03-29T10:52:23;2.53;;;1.40;;
18090;SDS011;9172;49.948;9.208;2024-03-29T10:54:53;2.37;;;1.47;;
18090;SDS011;9172;49.948;9.208;2024-03-29T10:57:23;2.40;;;0.90;;
18090;SDS011;9172;49.948;9.208;2024-03-29T10:59:56;1.40;;;1.30;;
18090;SDS011;9172;49.948;9.208;2024-03-29T11:02:33;1.30;;;1.03;;
18090;SDS011;9172;49.948;9.208;2024-03-29T11:05:05;4.53;;;0.90;;
18090;SDS011;9172;49.948;9.208;2024-03-29T11:07:37;2.70;;;1.17;;
18090;SDS011;9172;49.948;9.208;2024-03-29T11:10:15;1.90;;;1.13;;
18090;SDS011;9172;49.948;9.208;2024-03-29T11:12:59;4.03;;;1.40;;
18090;SDS011;9172;49.948;9.208;2024-03-29T11:15:30;2.83;;;1.17;;
18090;SDS011;9172;49.948;9.208;2024-03-29T11:18:01;1.20;;;0.80;;
18090;SDS011;9172;49.948;9.208;2024-03-29T11:20:30;0.80;;;0.80;;
18090;SDS011;9172;49.948;9.208;2024-03-29T11:23:06;2.63;;;1.23;;
18090;SDS011;9172;49.948;9.208;2024-03-29T11:25:40;4.20;;;1.10;;
18090;SDS011;9172;49.948;9.208;2024-03-29T11:28:10;1.97;;;1.07;;
18090;SDS011;9172;49.948;9.208;2024-03-29T11:30:41;4.10;;;1.37;;
18090;SDS011;9172;49.948;9.208;2024-03-29T11:36:10;3.33;;;1.10;;
18090;SDS011;9172;49.948;9.208;2024-03-29T11:38:39;1.93;;;0.97;;
18090;SDS011;9172;49.948;9.208;2024-03-29T11:41:17;0.97;;;0.80;;
18090;SDS011;9172;49.948;9.208;2024-03-29T11:43:48;0.70;;;0.60;;
18090;SDS011;9172;49.948;9.208;2024-03-29T11:46:17;2.20;;;0.80;;
18090;SDS011;9172;49.948;9.208;2024-03-29T11:48:47;2.07;;;0.93;;
18090;SDS011;9172;49.948;9.208;2024-03-29T11:51:20;3.10;;;1.20;;
18090;SDS011;9172;49.948;9.208;2024-03-29T11:53:56;2.13;;;1.00;;
18090;SDS011;9172;49.948;9.208;2024-03-29T11:56:26;1.80;;;0.93;;
18090;SDS011;9172;49.948;9.208;2024-03-29T11:58:55;1.90;;;1.10;;
18090;SDS011;9172;49.948;9.208;2024-03-29T12:01:25;2.00;;;1.23;;
18090;SDS011;9172;49.948;9.208;2024-03-29T12:03:55;2.00;;;1.17;;
18090;SDS011;9172;49.948;9.208;2024-03-29T12:06:24;7.90;;;1.20;;
18090;SDS011;9172;49.948;9.208;2024-03-29T12:08:56;3.07;;;1.67;;
18090;SDS011;9172;49.948;9.208;2024-03-29T12:11:26;1.27;;;1.17;;
18090;SDS011;9172;49.948;9.208;2024-03-29T12:13:55;2.07;;;1.37;;
18090;SDS011;9172;49.948;9.208;2024-03-29T12:16:25;1.97;;;1.20;;
18090;SDS011;9172;49.948;9.208;2024-03-29T12:18:54;1.87;;;0.97;;
18090;SDS011;9172;49.948;9.208;2024-03-29T12:21:22;3.13;;;1.00;;
18090;SDS011;9172;49.948;9.208;2024-03-29T12:23:52;3.17;;;1.47;;
18090;SDS011;9172;49.948;9.208;2024-03-29T12:26:20;2.20;;;1.10;;
18090;SDS011;9172;49.948;9.208;2024-03-29T12:28:49;5.97;;;1.40;;
18090;SDS011;9172;49.948;9.208;2024-03-29T12:31:20;2.53;;;1.30;;
18090;SDS011;9172;49.948;9.208;2024-03-29T12:33:52;1.70;;;1.07;;
18090;SDS011;9172;49.948;9.208;2024-03-29T12:36:23;1.90;;;1.20;;
18090;SDS011;9172;49.948;9.208;2024-03-29T12:38:54;3.33;;;1.13;;
18090;SDS011;9172;49.948;9.208;2024-03-29T12:41:24;2.57;;;1.20;;
18090;SDS011;9172;49.948;9.208;2024-03-29T12:43:54;7.10;;;1.00;;
18090;SDS011;9172;49.948;9.208;2024-03-29T12:46:22;1.30;;;1.00;;
18090;SDS011;9172;49.948;9.208;2024-03-29T12:48:58;2.60;;;1.03;;
18090;SDS011;9172;49.948;9.208;2024-03-29T12:51:27;2.83;;;1.37;;
18090;SDS011;9172;49.948;9.208;2024-03-29T12:54:00;1.53;;;1.13;;
18090;SDS011;9172;49.948;9.208;2024-03-29T12:56:37;2.30;;;1.30;;
18090;SDS011;9172;49.948;9.208;2024-03-29T12:59:07;1.90;;;1.23;;
18090;SDS011;9172;49.948;9.208;2024-03-29T13:01:36;3.53;;;1.40;;
18090;SDS011;9172;49.948;9.208;2024-03-29T13:04:05;3.90;;;1.17;;
18090;SDS011;9172;49.948;9.208;2024-03-29T13:06:34;4.83;;;1.20;;
18090;SDS011;9172;49.948;9.208;2024-03-29T13:09:03;1.90;;;1.10;;
18090;SDS011;9172;49.948;9.208;2024-03-29T13:11:31;1.80;;;1.20;;
18090;SDS011;9172;49.948;9.208;2024-03-29T13:14:00;1.97;;;1.43;;
18090;SDS011;9172;49.948;9.208;2024-03-29T13:16:28;2.80;;;1.40;;
18090;SDS011;9172;49.948;9.208;2024-03-29T13:18:58;1.50;;;0.87;;
18090;SDS011;9172;49.948;9.208;2024-03-29T13:21:26;2.23;;;1.30;;
18090;SDS011;9172;49.948;9.208;2024-03-29T13:23:55;2.33;;;1.70;;
18090;SDS011;9172;49.948;9.208;2024-03-29T13:26:23;1.80;;;1.47;;
18090;SDS011;9172;49.948;9.208;2024-03-29T13:28:52;2.87;;;1.30;;
18090;SDS011;9172;49.948;9.208;2024-03-29T13:31:20;3.13;;;1.57;;
18090;SDS011;9172;49.948;9.208;2024-03-29T13:33:51;4.03;;;1.97;;
18090;SDS011;9172;49.948;9.208;2024-03-29T13:36:21;5.17;;;1.70;;
18090;SDS011;9172;49.948;9.208;2024-03-29T13:38:50;4.77;;;1.30;;
18090;SDS011;9172;49.948;9.208;2024-03-29T13:41:18;2.20;;;1.20;;
18090;SDS011;9172;49.948;9.208;2024-03-29T13:43:47;2.00;;;1.37;;
18090;SDS011;9172;49.948;9.208;2024-03-29T13:46:16;2.03;;;1.37;;
18090;SDS011;9172;49.948;9.208;2024-03-29T13:48:44;2.77;;;1.33;;
18090;SDS011;9172;49.948;9.208;2024-03-29T13:51:14;2.17;;;1.70;;
18090;SDS011;9172;49.948;9.208;2024-03-29T13:53:43;4.60;;;1.47;;
18090;SDS011;9172;49.948;9.208;2024-03-29T13:56:11;8.10;;;1.40;;
18090;SDS011;9172;49.948;9.208;2024-03-29T13:58:40;1.57;;;1.27;;
18090;SDS011;9172;49.948;9.208;2024-03-29T14:01:08;3.87;;;1.40;;
18090;SDS011;9172;49.948;9.208;2024-03-29T14:03:37;2.30;;;1.33;;
18090;SDS011;9172;49.948;9.208;2024-03-29T14:06:06;2.47;;;1.40;;
18090;SDS011;9172;49.948;9.208;2024-03-29T14:08:34;3.53;;;1.40;;
18090;SDS011;9172;49.948;9.208;2024-03-29T14:11:03;1.33;;;1.07;;
18090;SDS011;9172;49.948;9.208;2024-03-29T14:13:32;1.83;;;1.50;;
18090;SDS011;9172;49.948;9.208;2024-03-29T14:16:00;1.83;;;1.27;;
18090;SDS011;9172;49.948;9.208;2024-03-29T14:18:29;2.43;;;1.47;;
18090;SDS011;9172;49.948;9.208;2024-03-29T14:20:58;3.17;;;1.80;;
18090;SDS011;9172;49.948;9.208;2024-03-29T14:23:27;2.03;;;1.57;;
18090;SDS011;9172;49.948;9.208;2024-03-29T14:25:55;5.63;;;2.03;;
18090;SDS011;9172;49.948;9.208;2024-03-29T14:28:24;4.83;;;1.90;;
18090;SDS011;9172;49.948;9.208;2024-03-29T14:30:53;3.73;;;1.57;;
18090;SDS011;9172;49.948;9.208;2024-03-29T14:33:21;2.07;;;1.50;;
18090;SDS011;9172;49.948;9.208;2024-03-29T14:35:50;1.63;;;1.00;;
18090;SDS011;9172;49.948;9.208;2024-03-29T14:38:20;2.77;;;1.17;;
18090;SDS011;9172;49.948;9.208;2024-03-29T14:40:48;2.73;;;1.60;;
18090;SDS011;9172;49.948;9.208;2024-03-29T14:43:17;3.23;;;1.67;;
18090;SDS011;9172;49.948;9.208;2024-03-29T14:45:45;1.57;;;0.70;;
18090;SDS011;9172;49.948;9.208;2024-03-29T14:48:15;3.03;;;1.30;;
18090;SDS011;9172;49.948;9.208;2024-03-29T14:50:44;0.80;;;0.57;;
18090;SDS011;9172;49.948;9.208;2024-03-29T14:53:13;1.07;;;0.73;;
18090;SDS011;9172;49.948;9.208;2024-03-29T14:55:43;1.47;;;0.90;;
18090;SDS011;9172;49.948;9.208;2024-03-29T14:58:12;0.97;;;0.60;;
18090;SDS011;9172;49.948;9.208;2024-03-29T15:00:40;2.30;;;1.03;;
18090;SDS011;9172;49.948;9.208;2024-03-29T15:03:11;3.23;;;1.00;;
18090;SDS011;9172;49.948;9.208;2024-03-29T15:05:40;2.93;;;1.50;;
18090;SDS011;9172;49.948;9.208;2024-03-29T15:08:08;3.23;;;1.47;;
18090;SDS011;9172;49.948;9.208;2024-03-29T15:10:39;3.40;;;1.20;;
18090;SDS011;9172;49.948;9.208;2024-03-29T15:13:07;0.60;;;0.60;;
18090;SDS011;9172;49.948;9.208;2024-03-29T15:15:36;1.30;;;0.77;;
18090;SDS011;9172;49.948;9.208;2024-03-29T15:18:05;3.53;;;1.10;;
18090;SDS011;9172;49.948;9.208;2024-03-29T15:20:34;1.07;;;0.90;;